Time;durP1;ratioP1;P1;durP2;ratioP2;P2;SDS_P1;SDS_P2;PMS_P1;PMS_P2;Temp;Humidity;BMP_temperature;BMP_pressure;BME280_temperature;BME280_humidity;BME280_pressure;Samples;Min_cycle;Max_cycle;Signal;HPM_P1;HPM_P2
2022/07/25 00:01:54;;;;;;;6.68;5.72;;;21.60;99.90;;;;;;5070121;28;20036;-69
2022/07/25 00:04:20;;;;;;;6.85;5.80;;;21.50;99.90;;;;;;5070806;28;20047;-69
2022/07/25 00:06:46;;;;;;;8.93;5.93;;;21.50;99.90;;;;;;5070774;28;20385;-69
2022/07/25 00:09:12;;;;;;;11.02;6.50;;;21.50;99.90;;;;;;5071060;28;20025;-69
2022/07/25 00:11:38;;;;;;;9.02;7.32;;;21.60;99.90;;;;;;5069865;28;20080;-69
2022/07/25 00:14:04;;;;;;;11.75;6.90;;;21.50;99.90;;;;;;5069515;28;20434;-69
2022/07/25 00:16:30;;;;;;;9.77;6.55;;;21.50;99.90;;;;;;5070791;28;20047;-69
2022/07/25 00:18:55;;;;;;;9.43;7.28;;;21.40;99.90;;;;;;5069633;28;20139;-69
2022/07/25 00:21:21;;;;;;;11.25;7.25;;;21.40;99.90;;;;;;5070714;28;20048;-69
2022/07/25 00:23:47;;;;;;;10.63;7.72;;;21.30;99.90;;;;;;5069055;28;20500;-69
2022/07/25 00:26:13;;;;;;;14.82;7.72;;;21.30;99.90;;;;;;5052707;28;20132;-68
2022/07/25 00:28:39;;;;;;;8.88;7.97;;;21.40;99.90;;;;;;5069303;28;20052;-69
2022/07/25 00:31:04;;;;;;;12.05;8.07;;;21.30;99.90;;;;;;5070679;28;20036;-69
2022/07/25 00:33:30;;;;;;;12.13;8.43;;;21.40;99.90;;;;;;5070490;28;20086;-69
2022/07/25 00:35:56;;;;;;;11.57;8.82;;;21.30;99.90;;;;;;5069520;28;20051;-69
2022/07/25 00:38:21;;;;;;;10.55;8.13;;;21.30;99.90;;;;;;5069028;28;20051;-69
2022/07/25 00:40:47;;;;;;;12.25;9.27;;;21.30;99.90;;;;;;5069034;28;20554;-69
2022/07/25 00:43:13;;;;;;;13.00;9.32;;;21.30;99.90;;;;;;5070325;28;20041;-68
2022/07/25 00:45:38;;;;;;;11.80;8.90;;;21.30;99.90;;;;;;5070241;28;20044;-69
2022/07/25 00:48:04;;;;;;;11.52;9.48;;;21.30;99.90;;;;;;5070448;28;20098;-69
2022/07/25 00:50:30;;;;;;;11.38;9.10;;;21.30;99.90;;;;;;5068830;28;20041;-69
2022/07/25 00:52:56;;;;;;;12.55;9.68;;;21.30;99.90;;;;;;5069898;28;20040;-69
2022/07/25 00:55:22;;;;;;;12.82;9.30;;;21.30;99.90;;;;;;5074096;28;20032;-69
2022/07/25 00:57:48;;;;;;;12.38;9.57;;;21.30;99.90;;;;;;5079019;28;20051;-69
2022/07/25 01:00:14;;;;;;;14.40;9.00;;;21.20;99.90;;;;;;5052447;28;20041;-69
2022/07/25 01:02:41;;;;;;;12.02;9.77;;;21.20;99.90;;;;;;5068607;28;20048;-68
2022/07/25 01:05:07;;;;;;;16.05;10.25;;;21.10;99.90;;;;;;5068782;28;20040;-69
2022/07/25 01:07:34;;;;;;;14.00;9.82;;;21.00;99.90;;;;;;5068735;28;20033;-68
2022/07/25 01:10:00;;;;;;;14.18;10.45;;;21.00;99.90;;;;;;5052146;28;20044;-69
2022/07/25 01:12:26;;;;;;;12.18;10.40;;;21.00;99.90;;;;;;5068784;28;20400;-69
2022/07/25 01:14:51;;;;;;;14.75;10.30;;;21.00;99.90;;;;;;5069592;28;20515;-69
2022/07/25 01:17:17;;;;;;;18.73;10.40;;;21.00;99.90;;;;;;5069780;28;20119;-69
2022/07/25 01:19:42;;;;;;;15.65;11.55;;;21.00;99.90;;;;;;5068596;28;20048;-69
2022/07/25 01:22:08;;;;;;;14.57;11.20;;;21.00;99.90;;;;;;5068537;28;20555;-69
2022/07/25 01:24:34;;;;;;;18.15;11.15;;;21.00;99.90;;;;;;5068193;28;20040;-68
2022/07/25 01:27:01;;;;;;;16.33;11.27;;;20.90;99.90;;;;;;5052097;28;20055;-69
2022/07/25 01:29:27;;;;;;;15.90;11.95;;;21.00;99.90;;;;;;5051739;28;20127;-69
2022/07/25 01:31:53;;;;;;;17.38;11.73;;;20.90;99.90;;;;;;5069753;28;20050;-68
2022/07/25 01:34:18;;;;;;;15.88;12.27;;;20.90;99.90;;;;;;5069653;28;20044;-69
2022/07/25 01:36:44;;;;;;;21.73;12.55;;;20.80;99.90;;;;;;5068313;28;20051;-69
2022/07/25 01:39:12;;;;;;;18.15;11.20;;;20.90;99.90;;;;;;5069522;28;20076;-69
2022/07/25 01:41:37;;;;;;;16.17;11.88;;;20.90;99.90;;;;;;5051719;28;20083;-69
2022/07/25 01:44:03;;;;;;;15.82;11.98;;;20.80;99.90;;;;;;5051329;28;20041;-69
2022/07/25 01:46:29;;;;;;;14.73;12.02;;;20.80;99.90;;;;;;5068290;28;20052;-69
2022/07/25 01:48:54;;;;;;;19.00;12.45;;;20.80;99.90;;;;;;5068418;28;20448;-69
2022/07/25 01:51:20;;;;;;;16.35;12.65;;;20.80;99.90;;;;;;5069545;28;20043;-69
2022/07/25 01:53:46;;;;;;;16.70;13.07;;;20.80;99.90;;;;;;5069165;28;20044;-69
2022/07/25 01:56:12;;;;;;;14.45;11.38;;;20.80;99.90;;;;;;5069776;28;20040;-69
2022/07/25 01:58:37;;;;;;;16.38;12.18;;;20.80;99.90;;;;;;5070013;28;20041;-69
2022/07/25 02:01:03;;;;;;;14.52;12.20;;;20.80;99.90;;;;;;5068336;28;20063;-69
2022/07/25 02:03:28;;;;;;;15.15;12.60;;;20.80;99.90;;;;;;5075172;28;20047;-70
2022/07/25 02:05:54;;;;;;;18.08;12.45;;;20.80;99.90;;;;;;5077811;28;20037;-69
2022/07/25 02:08:20;;;;;;;17.23;12.57;;;20.80;99.90;;;;;;5068306;28;20108;-69
2022/07/25 02:10:46;;;;;;;15.98;12.98;;;20.80;99.90;;;;;;5069434;28;20047;-69
2022/07/25 02:13:11;;;;;;;17.55;12.55;;;20.80;99.90;;;;;;5051330;28;20074;-70
2022/07/25 02:15:37;;;;;;;15.15;11.77;;;20.80;99.90;;;;;;5051479;28;20047;-69
2022/07/25 02:18:03;;;;;;;14.75;12.00;;;20.70;99.90;;;;;;5068206;28;20084;-70
2022/07/25 02:20:28;;;;;;;18.92;12.57;;;20.70;99.90;;;;;;5067876;28;20131;-69
2022/07/25 02:22:54;;;;;;;15.65;12.52;;;20.70;99.90;;;;;;5069236;28;20480;-69
2022/07/25 02:25:19;;;;;;;17.45;12.52;;;20.70;99.90;;;;;;5069591;28;20036;-69
2022/07/25 02:27:45;;;;;;;21.65;12.68;;;20.70;99.90;;;;;;5069685;28;20033;-69
2022/07/25 02:30:11;;;;;;;16.58;12.82;;;20.70;99.90;;;;;;5073002;28;20488;-69
2022/07/25 02:32:36;;;;;;;17.55;13.00;;;20.60;99.90;;;;;;5072826;28;20075;-69
2022/07/25 02:35:02;;;;;;;15.68;12.48;;;20.60;99.90;;;;;;5071624;28;20052;-69
2022/07/25 02:37:28;;;;;;;15.35;12.55;;;20.50;99.90;;;;;;5072828;28;20118;-69
2022/07/25 02:39:54;;;;;;;18.65;12.73;;;20.50;99.90;;;;;;5072965;28;20040;-69
2022/07/25 02:42:19;;;;;;;17.42;13.90;;;20.50;99.90;;;;;;5071000;28;20037;-69
2022/07/25 02:44:45;;;;;;;17.85;12.88;;;20.40;99.90;;;;;;5071411;28;20096;-69
2022/07/25 02:47:10;;;;;;;18.00;13.68;;;20.50;99.90;;;;;;5054621;28;20032;-69
2022/07/25 02:49:36;;;;;;;19.23;13.60;;;20.40;99.90;;;;;;5071199;28;20037;-69
2022/07/25 02:52:01;;;;;;;19.67;13.57;;;20.40;99.90;;;;;;5071573;28;20127;-69
2022/07/25 02:54:27;;;;;;;22.02;14.07;;;20.40;99.90;;;;;;5070935;28;20043;-69
2022/07/25 02:56:52;;;;;;;16.85;13.45;;;20.40;99.90;;;;;;5072718;28;20040;-69
2022/07/25 02:59:18;;;;;;;17.30;13.40;;;20.30;99.90;;;;;;5071097;28;20135;-69
2022/07/25 03:01:44;;;;;;;18.58;14.20;;;20.30;99.90;;;;;;5071176;28;20413;-70
2022/07/25 03:04:09;;;;;;;21.00;14.25;;;20.30;99.90;;;;;;5071134;28;20052;-69
2022/07/25 03:06:35;;;;;;;20.10;14.25;;;20.30;99.90;;;;;;5071199;28;20044;-69
2022/07/25 03:09:00;;;;;;;18.05;13.82;;;20.30;99.90;;;;;;5071310;28;20050;-70
2022/07/25 03:11:26;;;;;;;19.05;14.75;;;20.20;99.90;;;;;;5076183;28;20032;-69
2022/07/25 03:13:51;;;;;;;19.77;14.35;;;20.10;99.90;;;;;;5080610;28;20039;-69
2022/07/25 03:16:17;;;;;;;18.23;14.20;;;20.00;99.90;;;;;;5073325;28;20515;-69
2022/07/25 03:18:42;;;;;;;21.13;14.70;;;20.10;99.90;;;;;;5070684;28;20079;-69
2022/07/25 03:21:08;;;;;;;19.15;14.68;;;20.10;99.90;;;;;;5054067;28;20075;-69
2022/07/25 03:23:33;;;;;;;18.20;14.65;;;20.10;99.90;;;;;;5070019;28;20055;-69
2022/07/25 03:25:59;;;;;;;21.45;14.60;;;20.10;99.90;;;;;;5070866;28;20068;-69
2022/07/25 03:28:25;;;;;;;24.35;14.38;;;20.10;99.90;;;;;;5072161;28;20040;-69
2022/07/25 03:30:51;;;;;;;19.00;13.50;;;20.10;99.90;;;;;;5070715;28;20045;-69
2022/07/25 03:33:17;;;;;;;18.83;14.93;;;20.10;99.90;;;;;;5053809;28;20408;-69
2022/07/25 03:35:42;;;;;;;18.98;14.85;;;20.10;99.90;;;;;;5072255;28;20047;-70
2022/07/25 03:38:08;;;;;;;19.92;14.65;;;20.00;99.90;;;;;;5071850;28;20052;-69
2022/07/25 03:40:35;;;;;;;18.48;14.70;;;20.00;99.90;;;;;;5068946;28;20119;-69
2022/07/25 03:43:01;;;;;;;18.60;14.43;;;19.90;99.90;;;;;;5068956;28;20048;-70
2022/07/25 03:45:26;;;;;;;19.48;14.70;;;20.00;99.90;;;;;;5068614;28;20032;-69
2022/07/25 03:47:52;;;;;;;21.45;15.88;;;19.90;99.90;;;;;;5067468;28;20393;-69
2022/07/25 03:50:17;;;;;;;22.05;14.63;;;19.90;99.90;;;;;;5068072;28;20044;-69
2022/07/25 03:52:43;;;;;;;21.98;15.52;;;19.80;99.90;;;;;;5069066;28;20048;-69
2022/07/25 03:55:10;;;;;;;21.67;14.80;;;19.80;99.90;;;;;;5071570;28;20041;-69
2022/07/25 03:57:36;;;;;;;22.38;14.98;;;19.80;99.90;;;;;;5070931;28;20139;-69
2022/07/25 04:00:04;;;;;;;20.17;14.63;;;19.80;99.90;;;;;;5068735;28;20551;-69
2022/07/25 04:02:30;;;;;;;20.88;15.48;;;19.80;99.90;;;;;;5069273;28;20040;-69
2022/07/25 04:04:56;;;;;;;19.45;14.02;;;19.80;99.90;;;;;;5070084;28;20074;-69
2022/07/25 04:07:21;;;;;;;18.85;14.30;;;19.80;99.90;;;;;;5069646;28;20036;-69
2022/07/25 04:09:47;;;;;;;21.80;15.07;;;19.90;99.90;;;;;;5069845;28;20519;-69
2022/07/25 04:12:12;;;;;;;19.60;15.07;;;20.00;99.90;;;;;;5071092;28;20132;-69
2022/07/25 04:14:38;;;;;;;16.63;13.80;;;20.00;99.90;;;;;;5070944;28;20139;-69
2022/07/25 04:17:05;;;;;;;19.00;13.85;;;20.00;99.90;;;;;;5071214;28;20081;-69
2022/07/25 04:19:30;;;;;;;21.17;14.85;;;20.00;99.90;;;;;;5076937;28;20036;-69
2022/07/25 04:21:56;;;;;;;21.58;15.02;;;20.00;99.90;;;;;;5074818;28;20040;-69
2022/07/25 04:24:21;;;;;;;20.38;14.52;;;20.10;99.90;;;;;;5070706;28;20093;-69
2022/07/25 04:26:47;;;;;;;18.65;14.35;;;20.10;99.90;;;;;;5069840;28;20044;-69
2022/07/25 04:29:13;;;;;;;20.13;15.38;;;20.10;99.90;;;;;;5069263;28;20040;-69
2022/07/25 04:31:38;;;;;;;19.30;14.52;;;20.20;99.90;;;;;;5069400;28;20642;-69
2022/07/25 04:34:04;;;;;;;17.45;13.75;;;20.20;99.90;;;;;;5070471;28;20048;-69
2022/07/25 04:36:29;;;;;;;21.17;13.73;;;20.20;99.90;;;;;;5070641;28;20554;-69
2022/07/25 04:38:55;;;;;;;16.65;13.60;;;20.20;99.90;;;;;;5069209;28;20049;-69
2022/07/25 04:41:21;;;;;;;15.80;13.23;;;20.40;99.90;;;;;;5070465;28;20049;-69
2022/07/25 04:43:46;;;;;;;17.60;13.65;;;20.40;99.90;;;;;;5068704;28;20564;-69
2022/07/25 04:46:12;;;;;;;19.30;13.23;;;20.40;99.90;;;;;;5069076;28;20531;-69
2022/07/25 04:48:37;;;;;;;15.65;12.20;;;20.60;99.90;;;;;;5068994;28;20384;-70
2022/07/25 04:51:03;;;;;;;17.95;14.20;;;20.60;99.90;;;;;;5070188;28;20127;-69
2022/07/25 04:53:28;;;;;;;20.02;13.10;;;20.80;99.90;;;;;;5068887;28;20456;-70
2022/07/25 04:55:54;;;;;;;16.67;13.68;;;20.90;99.90;;;;;;5069048;28;20048;-69
2022/07/25 04:58:20;;;;;;;18.83;13.07;;;20.90;99.90;;;;;;5070332;28;20076;-69
2022/07/25 05:00:45;;;;;;;18.70;13.13;;;20.90;99.90;;;;;;5070177;28;20120;-69
2022/07/25 05:03:11;;;;;;;20.30;12.68;;;21.00;99.90;;;;;;5051894;28;20059;-69
2022/07/25 05:05:37;;;;;;;15.90;12.20;;;21.00;99.90;;;;;;5068789;28;20044;-69
2022/07/25 05:08:02;;;;;;;17.13;13.30;;;21.10;99.90;;;;;;5052126;28;20033;-69
2022/07/25 05:10:29;;;;;;;18.98;13.07;;;21.10;99.90;;;;;;5070114;28;20556;-69
2022/07/25 05:12:55;;;;;;;19.67;13.23;;;21.20;99.90;;;;;;5068619;28;20071;-69
2022/07/25 05:15:21;;;;;;;18.65;12.63;;;21.20;99.90;;;;;;5069011;28;20401;-69
2022/07/25 05:17:47;;;;;;;18.40;12.52;;;21.40;99.90;;;;;;5069116;28;20040;-69
2022/07/25 05:20:13;;;;;;;21.00;13.32;;;21.50;99.90;;;;;;5068523;28;20054;-69
2022/07/25 05:22:38;;;;;;;18.13;12.82;;;21.70;99.90;;;;;;5070031;28;20049;-70
2022/07/25 05:25:09;;;;;;;22.20;12.50;;;21.80;99.90;;;;;;5069130;28;20044;-70
2022/07/25 05:27:35;;;;;;;18.05;12.40;;;22.00;99.90;;;;;;5079210;28;20121;-70
2022/07/25 05:30:01;;;;;;;17.05;12.85;;;22.10;99.90;;;;;;5072546;28;20075;-69
2022/07/25 05:32:27;;;;;;;18.15;13.52;;;22.20;99.90;;;;;;5069442;28;20084;-70
2022/07/25 05:34:52;;;;;;;20.35;13.02;;;22.30;99.90;;;;;;5068487;28;20751;-70
2022/07/25 05:37:18;;;;;;;20.30;13.40;;;22.30;99.90;;;;;;5069787;28;20044;-70
2022/07/25 05:39:44;;;;;;;16.58;13.25;;;22.50;99.90;;;;;;5069595;28;20032;-70
2022/07/25 05:42:09;;;;;;;18.15;12.27;;;22.50;99.90;;;;;;5069867;28;20458;-69
2022/07/25 05:44:35;;;;;;;24.63;13.70;;;22.70;99.90;;;;;;5068154;28;20074;-70
2022/07/25 05:47:01;;;;;;;17.98;12.95;;;22.80;99.90;;;;;;5068429;28;20471;-70
2022/07/25 05:49:26;;;;;;;18.67;12.98;;;22.90;99.90;;;;;;5068683;28;20056;-70
2022/07/25 05:51:52;;;;;;;17.25;13.15;;;22.80;99.90;;;;;;5069961;28;20068;-70
2022/07/25 05:54:17;;;;;;;24.38;12.88;;;22.90;99.90;;;;;;5068032;28;20052;-70
2022/07/25 05:56:43;;;;;;;18.95;12.30;;;23.00;99.90;;;;;;5069947;28;20115;-70
2022/07/25 05:59:09;;;;;;;20.77;13.43;;;23.00;99.90;;;;;;5069765;28;20106;-70
2022/07/25 06:01:34;;;;;;;17.13;13.27;;;23.10;99.90;;;;;;5069638;28;20613;-70
2022/07/25 06:04:00;;;;;;;19.98;12.90;;;23.10;99.90;;;;;;5070477;28;20041;-70
2022/07/25 06:06:25;;;;;;;22.55;13.00;;;23.20;99.90;;;;;;5073260;28;20109;-70
2022/07/25 06:08:51;;;;;;;15.68;12.57;;;23.20;99.90;;;;;;5072010;28;20041;-70
2022/07/25 06:11:17;;;;;;;17.88;12.98;;;23.10;99.90;;;;;;5055221;28;20457;-69
2022/07/25 06:13:42;;;;;;;17.88;13.23;;;23.10;99.90;;;;;;5073005;28;20029;-70
2022/07/25 06:16:08;;;;;;;17.50;12.40;;;23.10;99.90;;;;;;5071705;28;20076;-69
2022/07/25 06:18:34;;;;;;;17.45;12.00;;;23.10;99.90;;;;;;5071816;28;20491;-69
2022/07/25 06:20:59;;;;;;;15.63;13.10;;;23.20;99.90;;;;;;5072924;28;20072;-69
2022/07/25 06:23:25;;;;;;;16.42;12.18;;;23.20;99.90;;;;;;5071393;28;20041;-69
2022/07/25 06:25:51;;;;;;;17.58;12.50;;;23.30;99.90;;;;;;5073036;28;20075;-69
2022/07/25 06:28:16;;;;;;;18.35;12.25;;;23.30;99.90;;;;;;5073105;28;20040;-67
2022/07/25 06:30:44;;;;;;;17.35;12.10;;;23.30;99.90;;;;;;5054849;28;20480;-68
2022/07/25 06:33:10;;;;;;;20.88;12.02;;;23.30;99.90;;;;;;5074418;28;20071;-68
2022/07/25 06:35:35;;;;;;;20.42;11.55;;;23.30;99.90;;;;;;5081920;28;20504;-68
2022/07/25 06:38:01;;;;;;;18.90;12.25;;;23.30;99.90;;;;;;5074797;28;20066;-68
2022/07/25 06:40:27;;;;;;;16.45;11.88;;;23.20;99.90;;;;;;5072975;28;20115;-68
2022/07/25 06:42:53;;;;;;;14.10;11.30;;;23.30;99.90;;;;;;5071025;28;20041;-68
2022/07/25 06:45:19;;;;;;;20.30;11.73;;;23.40;99.90;;;;;;5071220;28;20098;-68
2022/07/25 06:47:44;;;;;;;22.73;12.52;;;23.50;99.90;;;;;;5071393;28;20481;-68
2022/07/25 06:50:13;;;;;;;13.38;11.20;;;23.70;99.90;;;;;;5072460;28;20102;-68
2022/07/25 06:52:42;;;;;;;16.02;11.43;;;23.90;99.90;;;;;;5072082;28;20511;-68
2022/07/25 06:55:09;;;;;;;17.65;13.13;;;24.00;99.90;;;;;;5054489;28;20076;-68
2022/07/25 06:57:35;;;;;;;17.48;12.32;;;24.10;99.90;;;;;;5072401;28;20465;-69
2022/07/25 07:00:05;;;;;;;16.60;12.20;;;24.20;99.90;;;;;;5072206;28;20036;-69
2022/07/25 07:02:31;;;;;;;17.40;11.48;;;24.30;99.90;;;;;;5070563;28;20127;-69
2022/07/25 07:04:56;;;;;;;16.42;12.10;;;24.40;99.90;;;;;;5072268;28;20120;-68
2022/07/25 07:07:22;;;;;;;14.07;11.23;;;24.50;99.90;;;;;;5072351;28;20083;-68
2022/07/25 07:09:48;;;;;;;14.05;11.38;;;24.60;99.90;;;;;;5070639;28;20053;-68
2022/07/25 07:12:13;;;;;;;13.60;10.50;;;24.70;99.90;;;;;;5054223;28;20404;-68
2022/07/25 07:14:39;;;;;;;11.45;9.73;;;24.80;99.90;;;;;;5070135;28;20477;-68
2022/07/25 07:17:04;;;;;;;14.95;10.98;;;25.00;99.90;;;;;;5072274;28;20052;-68
2022/07/25 07:19:30;;;;;;;16.55;10.77;;;25.00;99.90;;;;;;5071979;28;20436;-68
2022/07/25 07:21:56;;;;;;;17.80;10.57;;;25.10;99.90;;;;;;5053855;28;20147;-68
2022/07/25 07:24:22;;;;;;;15.77;11.07;;;25.10;99.90;;;;;;5074170;28;20400;-68
2022/07/25 07:26:47;;;;;;;16.60;10.93;;;25.10;99.90;;;;;;5072180;28;20085;-71
2022/07/25 07:29:13;;;;;;;13.70;9.70;;;25.20;99.90;;;;;;5068486;28;20044;-70
2022/07/25 07:31:39;;;;;;;14.77;9.95;;;25.20;99.90;;;;;;5070322;28;20574;-70
2022/07/25 07:34:05;;;;;;;14.60;8.98;;;25.40;99.90;;;;;;5070046;28;20148;-70
2022/07/25 07:36:31;;;;;;;11.00;9.13;;;25.50;99.90;;;;;;5070329;28;20045;-70
2022/07/25 07:38:57;;;;;;;13.30;9.68;;;25.70;99.90;;;;;;5070827;28;20052;-70
2022/07/25 07:41:22;;;;;;;12.80;9.30;;;25.70;99.90;;;;;;5076464;28;20102;-70
2022/07/25 07:43:49;;;;;;;14.55;9.32;;;25.70;99.90;;;;;;5086884;28;20572;-70
2022/07/25 07:46:15;;;;;;;20.30;9.23;;;25.60;99.90;;;;;;5073190;28;20086;-70
2022/07/25 07:48:40;;;;;;;14.48;9.95;;;25.70;99.90;;;;;;5070457;28;20068;-70
2022/07/25 07:51:06;;;;;;;14.00;9.18;;;25.60;99.90;;;;;;5071740;28;20483;-70
2022/07/25 07:56:18;;;;;;;13.02;9.93;;;25.60;99.90;;;;;;5070572;28;20617;-71
2022/07/25 07:58:44;;;;;;;12.70;9.93;;;25.60;99.90;;;;;;5070332;28;20047;-70
2022/07/25 08:01:10;;;;;;;12.15;8.85;;;25.70;99.90;;;;;;5070152;28;20068;-70
2022/07/25 08:03:36;;;;;;;12.20;8.20;;;25.60;99.90;;;;;;5069756;28;20044;-70
2022/07/25 08:06:02;;;;;;;20.08;9.27;;;25.90;99.90;;;;;;5071273;28;20378;-71
2022/07/25 08:08:28;;;;;;;15.80;10.57;;;25.90;99.90;;;;;;5069723;28;20037;-70
2022/07/25 08:10:53;;;;;;;14.02;10.77;;;26.10;99.90;;;;;;5053111;28;20047;-70
2022/07/25 08:13:21;;;;;;;39.30;11.70;;;26.10;99.90;;;;;;5069469;28;20174;-71
2022/07/25 08:15:51;;;;;;;13.80;10.32;;;26.10;99.90;;;;;;5069547;28;20075;-70
2022/07/25 08:18:17;;;;;;;15.57;10.10;;;26.10;99.90;;;;;;5069537;28;20041;-70
2022/07/25 08:20:43;;;;;;;12.05;10.05;;;26.00;99.90;;;;;;5069509;28;20075;-70
2022/07/25 08:23:12;;;;;;;10.75;9.35;;;25.90;99.90;;;;;;5069340;28;20072;-71
2022/07/25 08:25:39;;;;;;;15.02;9.18;;;26.00;99.90;;;;;;5068893;28;20157;-71
2022/07/25 08:28:05;;;;;;;13.77;8.98;;;25.90;99.90;;;;;;5052627;28;20121;-71
2022/07/25 08:30:31;;;;;;;10.32;7.70;;;25.80;99.90;;;;;;5071036;28;20378;-70
2022/07/25 08:33:03;;;;;;;11.43;7.40;;;25.80;99.90;;;;;;5069591;28;20497;-70
2022/07/25 08:35:29;;;;;;;12.20;7.05;;;25.80;99.90;;;;;;5070973;28;20137;-70
2022/07/25 08:37:55;;;;;;;8.30;6.20;;;25.70;99.90;;;;;;5069566;28;20036;-73
2022/07/25 08:40:23;;;;;;;9.18;6.53;;;25.60;99.90;;;;;;5069940;28;20052;-73
2022/07/25 08:42:49;;;;;;;12.20;6.45;;;25.50;99.90;;;;;;5069780;28;20060;-73
2022/07/25 08:45:16;;;;;;;10.52;5.63;;;25.40;99.90;;;;;;5053674;28;20433;-75
2022/07/25 08:47:43;;;;;;;11.38;5.65;;;25.20;99.90;;;;;;5053548;28;20063;-73
2022/07/25 08:50:12;;;;;;;6.78;5.35;;;25.20;99.90;;;;;;5083291;28;20071;-75
2022/07/25 08:52:38;;;;;;;10.98;5.95;;;25.20;99.90;;;;;;5075785;28;20132;-77
2022/07/25 08:55:07;;;;;;;6.97;5.22;;;25.20;99.90;;;;;;5053674;28;20037;-75
2022/07/25 08:57:34;;;;;;;10.82;6.05;;;25.20;99.90;;;;;;5071665;28;20040;-76
2022/07/25 09:00:00;;;;;;;7.38;5.07;;;25.20;99.90;;;;;;5069829;28;20033;-76
2022/07/25 09:02:27;;;;;;;10.48;5.63;;;25.10;99.90;;;;;;5041798;28;20040;-76
2022/07/25 09:04:53;;;;;;;10.02;5.57;;;25.10;99.90;;;;;;5070220;28;20121;-76
2022/07/25 09:07:52;;;;;;;7.95;5.95;;;25.00;99.90;;;;;;5053321;28;20123;-75
2022/07/25 09:10:27;;;;;;;8.25;5.60;;;25.00;99.90;;;;;;5032494;28;20407;-75
2022/07/25 09:12:58;;;;;;;11.30;5.70;;;25.00;99.90;;;;;;5015407;28;20171;-76
2022/07/25 09:15:31;;;;;;;8.35;6.22;;;24.90;99.90;;;;;;5031965;28;20052;-76
2022/07/25 09:17:59;;;;;;;7.75;5.82;;;24.90;99.90;;;;;;5032293;28;20087;-76
2022/07/25 09:20:46;;;;;;;7.82;5.85;;;24.90;99.90;;;;;;5015632;28;20053;-72
2022/07/25 09:23:14;;;;;;;8.82;5.75;;;24.80;99.90;;;;;;5030722;28;20410;-73
2022/07/25 09:25:41;;;;;;;8.10;6.30;;;24.60;99.90;;;;;;5014220;28;20203;-74
2022/07/25 09:28:17;;;;;;;8.25;6.20;;;24.50;99.90;;;;;;5031078;28;20440;-72
2022/07/25 09:30:57;;;;;;;7.82;5.22;;;24.40;99.90;;;;;;5030575;28;20055;-72
2022/07/25 09:33:24;;;;;;;13.65;5.75;;;24.50;99.90;;;;;;5030669;28;20091;-74
2022/07/25 09:35:51;;;;;;;8.15;5.68;;;24.60;99.90;;;;;;5014835;28;20083;-75
2022/07/25 09:38:18;;;;;;;12.45;5.82;;;24.70;99.90;;;;;;5017463;28;20512;-75
2022/07/25 09:40:58;;;;;;;10.35;5.70;;;24.70;99.90;;;;;;5035108;28;20037;-75
2022/07/25 09:43:40;;;;;;;11.90;5.97;;;24.90;99.90;;;;;;5035056;28;20044;-75
2022/07/25 09:46:06;;;;;;;10.73;5.60;;;24.90;99.90;;;;;;5056244;28;20044;-75
2022/07/25 09:48:33;;;;;;;7.25;5.53;;;24.90;99.90;;;;;;5056300;28;20052;-73
2022/07/25 09:50:59;;;;;;;7.32;6.00;;;24.80;99.90;;;;;;5072863;28;20115;-77
2022/07/25 09:53:25;;;;;;;5.72;4.85;;;24.80;99.90;;;;;;5072654;28;20528;-76
2022/07/25 09:55:53;;;;;;;7.07;4.53;;;24.80;99.90;;;;;;5073155;28;20079;-74
2022/07/25 09:58:19;;;;;;;7.07;4.20;;;24.90;99.90;;;;;;5074513;28;20373;-75
2022/07/25 10:00:45;;;;;;;5.85;4.43;;;25.00;99.90;;;;;;5089461;28;20094;-75
2022/07/25 10:03:17;;;;;;;4.85;3.45;;;25.20;99.90;;;;;;5084504;28;20384;-75
2022/07/25 10:06:04;;;;;;;4.80;3.70;;;25.10;99.90;;;;;;5072923;28;20115;-75
2022/07/25 10:08:35;;;;;;;7.30;3.08;;;25.20;99.90;;;;;;5056264;28;20032;-76
2022/07/25 10:11:03;;;;;;;3.83;2.90;;;25.00;99.90;;;;;;5072592;28;20048;-76
2022/07/25 10:13:33;;;;;;;5.10;3.03;;;24.90;99.90;;;;;;5072117;28;20052;-76
2022/07/25 10:16:00;;;;;;;2.80;2.60;;;24.90;99.90;;;;;;5055831;28;20052;-75
2022/07/25 10:18:27;;;;;;;4.30;2.70;;;24.90;99.90;;;;;;5072317;28;20036;-76
2022/07/25 10:21:11;;;;;;;5.10;2.47;;;24.70;99.90;;;;;;5055448;28;20044;-74
2022/07/25 10:23:36;;;;;;;3.88;2.42;;;24.70;99.90;;;;;;5072155;28;20044;-76
2022/07/25 10:26:06;;;;;;;2.75;2.35;;;24.70;99.90;;;;;;5072701;28;20033;-75
2022/07/25 10:28:49;;;;;;;4.68;2.47;;;24.60;99.90;;;;;;5055931;28;20136;-76
2022/07/25 10:31:20;;;;;;;4.97;2.63;;;24.70;99.90;;;;;;5072504;28;20044;-76
2022/07/25 10:34:07;;;;;;;3.28;2.65;;;24.70;99.90;;;;;;5055140;28;20044;-76
2022/07/25 10:36:41;;;;;;;3.58;2.80;;;24.80;99.90;;;;;;5071741;28;20047;-77
2022/07/25 10:39:10;;;;;;;3.80;2.30;;;24.90;99.90;;;;;;5055571;28;20467;-71
2022/07/25 10:41:40;;;;;;;4.93;2.40;;;24.90;99.90;;;;;;5073722;28;20076;-75
2022/07/25 10:44:14;;;;;;;4.35;2.47;;;24.90;99.90;;;;;;5071710;28;20519;-70
2022/07/25 10:46:43;;;;;;;4.15;2.28;;;25.00;99.90;;;;;;5071918;28;20044;-70
2022/07/25 10:49:19;;;;;;;5.80;2.63;;;25.00;99.90;;;;;;5071397;28;20097;-70
2022/07/25 10:51:55;;;;;;;3.70;1.92;;;25.00;99.90;;;;;;5052003;28;20044;-70
2022/07/25 10:54:21;;;;;;;3.92;2.25;;;25.00;99.90;;;;;;5044136;28;20071;-70
2022/07/25 10:56:55;;;;;;;3.72;2.20;;;24.90;99.90;;;;;;5051681;28;20047;-70
2022/07/25 10:59:37;;;;;;;2.72;2.10;;;24.90;99.90;;;;;;5051462;28;20084;-70
2022/07/25 11:02:05;;;;;;;3.90;1.98;;;24.90;99.90;;;;;;5051049;28;20080;-70
2022/07/25 11:04:31;;;;;;;3.28;1.90;;;24.90;99.90;;;;;;5051767;28;20037;-70
2022/07/25 11:07:07;;;;;;;3.55;1.95;;;25.00;99.90;;;;;;5065515;28;20059;-69
2022/07/25 11:09:33;;;;;;;4.57;2.03;;;25.00;99.90;;;;;;5063183;28;20045;-69
2022/07/25 11:11:59;;;;;;;2.25;1.58;;;25.00;99.90;;;;;;5051484;28;20411;-70
2022/07/25 11:14:40;;;;;;;2.50;1.85;;;25.00;99.90;;;;;;5055953;28;20170;-68
2022/07/25 11:17:19;;;;;;;4.53;1.55;;;25.00;99.90;;;;;;5059810;28;20549;-68
2022/07/25 11:20:07;;;;;;;7.85;1.80;;;25.00;99.90;;;;;;5056228;28;20047;-67
2022/07/25 11:22:34;;;;;;;2.72;1.58;;;24.90;99.90;;;;;;5050886;28;20041;-74
2022/07/25 11:25:00;;;;;;;1.92;1.70;;;24.80;99.90;;;;;;5051082;28;20097;-70
2022/07/25 11:27:30;;;;;;;3.65;1.77;;;24.80;99.90;;;;;;5035223;28;20386;-70
2022/07/25 11:30:08;;;;;;;2.35;1.70;;;24.80;99.90;;;;;;5050942;28;20124;-70
2022/07/25 11:32:46;;;;;;;6.30;1.63;;;24.80;99.90;;;;;;5052119;28;20051;-70
2022/07/25 11:35:13;;;;;;;3.97;1.90;;;24.80;99.90;;;;;;5050910;28;20077;-70
2022/07/25 11:37:41;;;;;;;3.47;1.50;;;24.80;99.90;;;;;;5052219;28;20493;-70
2022/07/25 11:40:08;;;;;;;4.53;1.90;;;24.90;99.90;;;;;;5050495;28;20052;-70
2022/07/25 11:42:41;;;;;;;7.75;1.80;;;24.90;99.90;;;;;;5050713;28;20049;-71
2022/07/25 11:45:21;;;;;;;6.00;1.90;;;24.80;99.90;;;;;;5051786;28;20437;-70
2022/07/25 11:48:10;;;;;;;22.63;3.03;;;24.90;99.90;;;;;;5050656;28;20033;-69
2022/07/25 11:50:38;;;;;;;5.75;2.10;;;24.80;99.90;;;;;;5033829;28;20033;-70
2022/07/25 11:53:07;;;;;;;6.15;2.22;;;24.90;99.90;;;;;;5050039;28;20106;-70
2022/07/25 11:55:36;;;;;;;10.27;2.40;;;24.90;99.90;;;;;;5052016;28;20446;-71
2022/07/25 11:58:03;;;;;;;5.50;1.95;;;24.90;99.90;;;;;;5050432;28;20040;-72
2022/07/25 12:00:29;;;;;;;4.85;2.05;;;24.80;99.90;;;;;;5049533;28;20053;-70
2022/07/25 12:03:09;;;;;;;3.90;2.22;;;24.80;99.90;;;;;;5049819;28;20041;-71
2022/07/25 12:05:35;;;;;;;12.43;2.25;;;24.90;99.90;;;;;;5050365;28;20045;-71
2022/07/25 12:08:18;;;;;;;10.75;2.80;;;24.90;99.90;;;;;;5051648;28;20456;-71
2022/07/25 12:10:50;;;;;;;5.15;2.00;;;25.00;99.90;;;;;;5051694;28;20540;-71
2022/07/25 12:13:24;;;;;;;5.88;2.13;;;25.00;99.90;;;;;;5050407;28;20041;-71
2022/07/25 12:15:50;;;;;;;7.57;2.28;;;25.00;99.90;;;;;;5064097;28;20067;-71
2022/07/25 12:18:15;;;;;;;4.50;2.13;;;25.00;99.90;;;;;;5047188;28;20049;-70
2022/07/25 12:20:42;;;;;;;7.65;1.95;;;25.10;99.90;;;;;;5051350;28;20040;-70
2022/07/25 12:23:10;;;;;;;8.52;2.30;;;25.10;99.90;;;;;;5049607;28;20041;-70
2022/07/25 12:25:38;;;;;;;6.90;2.17;;;25.20;99.90;;;;;;5049961;28;20661;-70
2022/07/25 12:28:05;;;;;;;5.82;2.20;;;25.20;99.90;;;;;;5050245;28;20429;-70
2022/07/25 12:30:31;;;;;;;8.23;1.98;;;25.20;99.90;;;;;;5051370;28;20037;-70
2022/07/25 12:32:57;;;;;;;6.03;2.20;;;25.20;99.90;;;;;;5051014;28;20047;-71
2022/07/25 12:35:23;;;;;;;10.13;2.30;;;25.20;99.90;;;;;;5049645;28;20102;-70
2022/07/25 12:37:49;;;;;;;6.53;2.17;;;25.10;99.90;;;;;;5049918;28;20552;-70